M/V Martha T — WDD5337 — position and weather

sailwx.info

Track history (hours):
 
Tides and Currents Weather Stations Pressure Air Temp Water Temp Dewpoint Dewpoint Depression Visibility Wind Speed Wind Dir Waves Ship Positions

M/V Martha T

Owner: The Tug Martha T, L.L.C., Sugarland, TX. More information available from US FCC via Universal Licensing System and Coast Guard Vessel Documentation Center.

Last reported at 2017-Nov-19 00:25 UTC. Time now 2017-Nov-19 08:42 UTC.
Position N 29°47' W 095°04'.

Type: Tug. MMSI: 367156850.

Date/timePositionNaut miles runAvg speedWind from/ knotsBaromVisibWave heightAir tempDewpointWater temp
2017-Nov-19 00:25N 29°47' W 095°04'2 0.6
2017-Nov-18 20:37N 29°46' W 095°06'1 4.6
2017-Nov-18 20:22N 29°46' W 095°05'4 3.4
2017-Nov-18 19:07N 29°44' W 095°09'2 8.4
2017-Nov-18 18:55N 29°45' W 095°11'1 0.1
2017-Nov-18 08:13N 29°45' W 095°10'6 6.4
2017-Nov-18 07:17N 29°47' W 095°04'1 2.6
2017-Nov-18 06:46N 29°46' W 095°05'2 6.5
2017-Nov-18 06:30N 29°45' W 095°04'2 0.3
2017-Nov-17 21:14N 29°44' W 095°01'0 0.9
2017-Nov-17 20:45N 29°43' W 095°01'0 0.1
2017-Nov-17 20:30N 29°43' W 095°01'1 2.9
2017-Nov-17 20:00N 29°44' W 095°03'4 2.1
2017-Nov-17 18:14N 29°47' W 095°04'0 0.1
2017-Nov-17 18:00N 29°47' W 095°04'2 3.5
2017-Nov-17 17:30N 29°46' W 095°05'2 4.8
2017-Nov-17 17:00N 29°44' W 095°03'2 3.3
2017-Nov-17 16:28N 29°43' W 095°01'0 0.0
2017-Nov-17 15:59N 29°43' W 095°01'1 0.9
2017-Nov-17 15:20N 29°44' W 095°01'0 0.0
2017-Nov-17 15:00N 29°44' W 095°01'0 0.0
2017-Nov-17 14:27N 29°44' W 095°01'0 0.0
2017-Nov-17 14:00N 29°44' W 095°01'0 0.0
2017-Nov-17 13:12N 29°44' W 095°01'0 0.0
2017-Nov-17 12:47N 29°44' W 095°01'0 0.0
2017-Nov-17 10:11N 29°44' W 095°01'0 0.0
2017-Nov-17 10:00N 29°44' W 095°01'0 0.0
2017-Nov-17 05:24N 29°44' W 095°01'0 0.0
2017-Nov-17 03:56N 29°44' W 095°01'0 0.0
2017-Nov-17 03:30N 29°44' W 095°01'0 0.0
2017-Nov-17 03:00N 29°44' W 095°01'0 0.0
2017-Nov-17 02:26N 29°44' W 095°01'0 0.0
2017-Nov-16 21:53N 29°44' W 095°01'0 0.0
2017-Nov-16 21:29N 29°44' W 095°01'0 0.0
2017-Nov-16 20:15N 29°44' W 095°01'0 0.0
2017-Nov-16 17:46N 29°44' W 095°01'0 0.0
2017-Nov-16 17:14N 29°44' W 095°01'0 0.0
2017-Nov-16 16:56N 29°44' W 095°01'0 0.0
2017-Nov-16 16:24N 29°44' W 095°01'0 0.0
2017-Nov-16 16:01N 29°44' W 095°01'0 0.0
2017-Nov-16 15:19N 29°44' W 095°01'0 0.0
2017-Nov-16 14:15N 29°44' W 095°01'0 0.0
2017-Nov-16 13:55N 29°44' W 095°01'0 0.2
2017-Nov-16 13:30N 29°44' W 095°01'0 0.9
2017-Nov-16 12:59N 29°43' W 095°01'0 0.8
2017-Nov-16 12:28N 29°44' W 095°01'0 0.0
2017-Nov-16 11:58N 29°44' W 095°01'0 0.1
2017-Nov-16 11:12N 29°44' W 095°02'0 0.4
2017-Nov-16 10:59N 29°44' W 095°02'4 2.1
2017-Nov-16 09:11N 29°46' W 095°05'1 6.8
2017-Nov-16 09:00N 29°45' W 095°06'1 0.9
2017-Nov-16 07:36N 29°46' W 095°07'0 0.0
2017-Nov-16 07:20N 29°46' W 095°07'0 0.0
2017-Nov-16 06:48N 29°46' W 095°07'0 0.2
2017-Nov-16 06:30N 29°46' W 095°07'0 0.0
2017-Nov-16 05:49N 29°46' W 095°07'0 0.0
2017-Nov-16 05:12N 29°46' W 095°07'0 0.0
2017-Nov-16 04:54N 29°46' W 095°07'0 0.0
2017-Nov-16 04:13N 29°46' W 095°07'0 0.0
2017-Nov-16 03:41N 29°46' W 095°07'0 0.0
2017-Nov-16 03:29N 29°46' W 095°07'0 0.0
2017-Nov-16 02:58N 29°46' W 095°07'0 0.0
2017-Nov-16 02:29N 29°46' W 095°07'0 0.0
2017-Nov-16 02:00N 29°46' W 095°07'0 0.0
2017-Nov-16 01:30N 29°46' W 095°07'0 0.0
2017-Nov-16 00:58N 29°46' W 095°07'0 0.0
2017-Nov-16 00:23N 29°46' W 095°07'1 0.0
2017-Nov-14 12:40N 29°46' W 095°06'1 2.9
2017-Nov-14 12:13N 29°46' W 095°05'1 1.1
2017-Nov-14 11:43N 29°46' W 095°05'1 0.5
2017-Nov-14 09:08N 29°45' W 095°06'0 0.0
2017-Nov-14 08:49N 29°45' W 095°06'0 0.0
2017-Nov-14 08:30N 29°45' W 095°06'0 0.0
2017-Nov-14 07:49N 29°45' W 095°06'0 0.0
2017-Nov-14 07:24N 29°45' W 095°06'2 0.1
2017-Nov-12 19:38N 29°46' W 095°05'1 4.8
2017-Nov-12 19:30N 29°46' W 095°05'2 4.5
2017-Nov-12 19:00N 29°44' W 095°03'1 0.0
2017-Nov-11 13:13N 29°44' W 095°01'0 0.0
2017-Nov-11 02:58N 29°44' W 095°01'0 0.0
2017-Nov-11 02:30N 29°44' W 095°01'0 0.0
2017-Nov-11 00:53N 29°44' W 095°01'0 0.0
2017-Nov-11 00:29N 29°44' W 095°01'0 0.0
2017-Nov-10 23:56N 29°44' W 095°01'0 0.0
2017-Nov-10 23:28N 29°44' W 095°01'0 0.0
2017-Nov-10 23:00N 29°44' W 095°01'0 0.0
2017-Nov-10 22:22N 29°44' W 095°01'0 0.0
2017-Nov-10 21:57N 29°44' W 095°01'1 2.7
2017-Nov-10 21:27N 29°44' W 095°03'3 2.6
2017-Nov-10 20:21N 29°46' W 095°05'3 0.4
2017-Nov-10 12:33N 29°44' W 095°08'0 0.0
2017-Nov-10 12:21N 29°44' W 095°08'0 0.0
2017-Nov-10 12:00N 29°44' W 095°08'0 0.0
2017-Nov-10 11:30N 29°44' W 095°08'0 0.0
2017-Nov-10 11:00N 29°44' W 095°08'0 0.0
2017-Nov-10 10:30N 29°44' W 095°08'0 0.0
2017-Nov-10 10:00N 29°44' W 095°08'0 0.0
2017-Nov-10 09:29N 29°44' W 095°08'0 0.0
2017-Nov-10 09:00N 29°44' W 095°08'0 0.0
2017-Nov-10 08:25N 29°44' W 095°08'0 0.0
2017-Nov-10 08:00N 29°44' W 095°08'0 0.0
2017-Nov-10 07:30N 29°44' W 095°08'0 0.0
2017-Nov-10 06:59N 29°44' W 095°08'0 0.0
2017-Nov-10 06:30N 29°44' W 095°08'0 0.0
2017-Nov-10 06:00N 29°44' W 095°08'0 0.0
2017-Nov-10 05:30N 29°44' W 095°08'0 0.0
2017-Nov-10 05:00N 29°44' W 095°08'0 0.0
2017-Nov-10 04:30N 29°44' W 095°08'0 0.0
2017-Nov-10 04:00N 29°44' W 095°08'0 0.0
2017-Nov-10 03:25N 29°44' W 095°08'0 0.0
2017-Nov-10 03:00N 29°44' W 095°08'0 0.0
2017-Nov-10 02:30N 29°44' W 095°08'0 0.0
2017-Nov-10 01:59N 29°44' W 095°08'0 0.0
2017-Nov-10 01:30N 29°44' W 095°08'0 0.0
2017-Nov-10 01:00N 29°44' W 095°08'0 0.0
2017-Nov-10 00:29N 29°44' W 095°08'0 0.0
2017-Nov-09 23:33N 29°44' W 095°08'0 0.9
2017-Nov-09 23:24N 29°44' W 095°08'5 6.4
2017-Nov-09 22:39N 29°48' W 095°04'0 0.9
2017-Nov-09 22:30N 29°47' W 095°04'1 0.8
2017-Nov-09 21:02N 29°47' W 095°05'0 1.7
2017-Nov-09 20:54N 29°46' W 095°05'1 0.1
2017-Nov-09 05:47N 29°46' W 095°06'2 1.5
2017-Nov-09 04:40N 29°45' W 095°06'0 0.9
2017-Nov-09 04:15N 29°45' W 095°06'3 5.9
2017-Nov-09 03:44N 29°47' W 095°04'0 0.2
2017-Nov-09 03:26N 29°47' W 095°04'1 0.8
2017-Nov-09 02:04N 29°47' W 095°05'0 5.8
2017-Nov-09 02:01N 29°46' W 095°05'  
Track history (hours):
 
Tides and Currents Weather Stations Pressure Air Temp Water Temp Dewpoint Dewpoint Depression Visibility Wind Speed Wind Dir Waves Ship Positions

M/V Martha T

Owner: The Tug Martha T, L.L.C., Sugarland, TX. More information available from US FCC via Universal Licensing System and Coast Guard Vessel Documentation Center.

Last reported at 2017-Nov-19 00:25 UTC. Time now 2017-Nov-19 08:42 UTC.
Position N 29°47' W 095°04'.

Type: Tug. MMSI: 367156850.

Date/timePositionNaut miles runAvg speedWind from/ knotsBaromVisibWave heightAir tempDewpointWater temp
2017-Nov-19 00:25N 29°47' W 095°04'2 0.6
2017-Nov-18 20:37N 29°46' W 095°06'1 4.6
2017-Nov-18 20:22N 29°46' W 095°05'4 3.4
2017-Nov-18 19:07N 29°44' W 095°09'2 8.4
2017-Nov-18 18:55N 29°45' W 095°11'1 0.1
2017-Nov-18 08:13N 29°45' W 095°10'6 6.4
2017-Nov-18 07:17N 29°47' W 095°04'1 2.6
2017-Nov-18 06:46N 29°46' W 095°05'2 6.5
2017-Nov-18 06:30N 29°45' W 095°04'2 0.3
2017-Nov-17 21:14N 29°44' W 095°01'0 0.9
2017-Nov-17 20:45N 29°43' W 095°01'0 0.1
2017-Nov-17 20:30N 29°43' W 095°01'1 2.9
2017-Nov-17 20:00N 29°44' W 095°03'4 2.1
2017-Nov-17 18:14N 29°47' W 095°04'0 0.1
2017-Nov-17 18:00N 29°47' W 095°04'2 3.5
2017-Nov-17 17:30N 29°46' W 095°05'2 4.8
2017-Nov-17 17:00N 29°44' W 095°03'2 3.3
2017-Nov-17 16:28N 29°43' W 095°01'0 0.0
2017-Nov-17 15:59N 29°43' W 095°01'1 0.9
2017-Nov-17 15:20N 29°44' W 095°01'0 0.0
2017-Nov-17 15:00N 29°44' W 095°01'0 0.0
2017-Nov-17 14:27N 29°44' W 095°01'0 0.0
2017-Nov-17 14:00N 29°44' W 095°01'0 0.0
2017-Nov-17 13:12N 29°44' W 095°01'0 0.0
2017-Nov-17 12:47N 29°44' W 095°01'0 0.0
2017-Nov-17 10:11N 29°44' W 095°01'0 0.0
2017-Nov-17 10:00N 29°44' W 095°01'0 0.0
2017-Nov-17 05:24N 29°44' W 095°01'0 0.0
2017-Nov-17 03:56N 29°44' W 095°01'0 0.0
2017-Nov-17 03:30N 29°44' W 095°01'0 0.0
2017-Nov-17 03:00N 29°44' W 095°01'0 0.0
2017-Nov-17 02:26N 29°44' W 095°01'0 0.0
2017-Nov-16 21:53N 29°44' W 095°01'0 0.0
2017-Nov-16 21:29N 29°44' W 095°01'0 0.0
2017-Nov-16 20:15N 29°44' W 095°01'0 0.0
2017-Nov-16 17:46N 29°44' W 095°01'0 0.0
2017-Nov-16 17:14N 29°44' W 095°01'0 0.0
2017-Nov-16 16:56N 29°44' W 095°01'0 0.0
2017-Nov-16 16:24N 29°44' W 095°01'0 0.0
2017-Nov-16 16:01N 29°44' W 095°01'0 0.0
2017-Nov-16 15:19N 29°44' W 095°01'0 0.0
2017-Nov-16 14:15N 29°44' W 095°01'0 0.0
2017-Nov-16 13:55N 29°44' W 095°01'0 0.2
2017-Nov-16 13:30N 29°44' W 095°01'0 0.9
2017-Nov-16 12:59N 29°43' W 095°01'0 0.8
2017-Nov-16 12:28N 29°44' W 095°01'0 0.0
2017-Nov-16 11:58N 29°44' W 095°01'0 0.1
2017-Nov-16 11:12N 29°44' W 095°02'0 0.4
2017-Nov-16 10:59N 29°44' W 095°02'4 2.1
2017-Nov-16 09:11N 29°46' W 095°05'1 6.8
2017-Nov-16 09:00N 29°45' W 095°06'1 0.9
2017-Nov-16 07:36N 29°46' W 095°07'0 0.0
2017-Nov-16 07:20N 29°46' W 095°07'0 0.0
2017-Nov-16 06:48N 29°46' W 095°07'0 0.2
2017-Nov-16 06:30N 29°46' W 095°07'0 0.0
2017-Nov-16 05:49N 29°46' W 095°07'0 0.0
2017-Nov-16 05:12N 29°46' W 095°07'0 0.0
2017-Nov-16 04:54N 29°46' W 095°07'0 0.0
2017-Nov-16 04:13N 29°46' W 095°07'0 0.0
2017-Nov-16 03:41N 29°46' W 095°07'0 0.0
2017-Nov-16 03:29N 29°46' W 095°07'0 0.0
2017-Nov-16 02:58N 29°46' W 095°07'0 0.0
2017-Nov-16 02:29N 29°46' W 095°07'0 0.0
2017-Nov-16 02:00N 29°46' W 095°07'0 0.0
2017-Nov-16 01:30N 29°46' W 095°07'0 0.0
2017-Nov-16 00:58N 29°46' W 095°07'0 0.0
2017-Nov-16 00:23N 29°46' W 095°07'1 0.0
2017-Nov-14 12:40N 29°46' W 095°06'1 2.9
2017-Nov-14 12:13N 29°46' W 095°05'1 1.1
2017-Nov-14 11:43N 29°46' W 095°05'1 0.5
2017-Nov-14 09:08N 29°45' W 095°06'0 0.0
2017-Nov-14 08:49N 29°45' W 095°06'0 0.0
2017-Nov-14 08:30N 29°45' W 095°06'0 0.0
2017-Nov-14 07:49N 29°45' W 095°06'0 0.0
2017-Nov-14 07:24N 29°45' W 095°06'2 0.1
2017-Nov-12 19:38N 29°46' W 095°05'1 4.8
2017-Nov-12 19:30N 29°46' W 095°05'2 4.5
2017-Nov-12 19:00N 29°44' W 095°03'1 0.0
2017-Nov-11 13:13N 29°44' W 095°01'0 0.0
2017-Nov-11 02:58N 29°44' W 095°01'0 0.0
2017-Nov-11 02:30N 29°44' W 095°01'0 0.0
2017-Nov-11 00:53N 29°44' W 095°01'0 0.0
2017-Nov-11 00:29N 29°44' W 095°01'0 0.0
2017-Nov-10 23:56N 29°44' W 095°01'0 0.0
2017-Nov-10 23:28N 29°44' W 095°01'0 0.0
2017-Nov-10 23:00N 29°44' W 095°01'0 0.0
2017-Nov-10 22:22N 29°44' W 095°01'0 0.0
2017-Nov-10 21:57N 29°44' W 095°01'1 2.7
2017-Nov-10 21:27N 29°44' W 095°03'3 2.6
2017-Nov-10 20:21N 29°46' W 095°05'3 0.4
2017-Nov-10 12:33N 29°44' W 095°08'0 0.0
2017-Nov-10 12:21N 29°44' W 095°08'0 0.0
2017-Nov-10 12:00N 29°44' W 095°08'0 0.0
2017-Nov-10 11:30N 29°44' W 095°08'0 0.0
2017-Nov-10 11:00N 29°44' W 095°08'0 0.0
2017-Nov-10 10:30N 29°44' W 095°08'0 0.0
2017-Nov-10 10:00N 29°44' W 095°08'0 0.0
2017-Nov-10 09:29N 29°44' W 095°08'0 0.0
2017-Nov-10 09:00N 29°44' W 095°08'0 0.0
2017-Nov-10 08:25N 29°44' W 095°08'0 0.0
2017-Nov-10 08:00N 29°44' W 095°08'0 0.0
2017-Nov-10 07:30N 29°44' W 095°08'0 0.0
2017-Nov-10 06:59N 29°44' W 095°08'0 0.0
2017-Nov-10 06:30N 29°44' W 095°08'0 0.0
2017-Nov-10 06:00N 29°44' W 095°08'0 0.0
2017-Nov-10 05:30N 29°44' W 095°08'0 0.0
2017-Nov-10 05:00N 29°44' W 095°08'0 0.0
2017-Nov-10 04:30N 29°44' W 095°08'0 0.0
2017-Nov-10 04:00N 29°44' W 095°08'0 0.0
2017-Nov-10 03:25N 29°44' W 095°08'0 0.0
2017-Nov-10 03:00N 29°44' W 095°08'0 0.0
2017-Nov-10 02:30N 29°44' W 095°08'0 0.0
2017-Nov-10 01:59N 29°44' W 095°08'0 0.0
2017-Nov-10 01:30N 29°44' W 095°08'0 0.0
2017-Nov-10 01:00N 29°44' W 095°08'0 0.0
2017-Nov-10 00:29N 29°44' W 095°08'0 0.0
2017-Nov-09 23:33N 29°44' W 095°08'0 0.9
2017-Nov-09 23:24N 29°44' W 095°08'5 6.4
2017-Nov-09 22:39N 29°48' W 095°04'0 0.9
2017-Nov-09 22:30N 29°47' W 095°04'1 0.8
2017-Nov-09 21:02N 29°47' W 095°05'0 1.7
2017-Nov-09 20:54N 29°46' W 095°05'1 0.1
2017-Nov-09 05:47N 29°46' W 095°06'2 1.5
2017-Nov-09 04:40N 29°45' W 095°06'0 0.9
2017-Nov-09 04:15N 29°45' W 095°06'3 5.9
2017-Nov-09 03:44N 29°47' W 095°04'0 0.2
2017-Nov-09 03:26N 29°47' W 095°04'1 0.8
2017-Nov-09 02:04N 29°47' W 095°05'0 5.8
2017-Nov-09 02:01N 29°46' W 095°05'  

Dump ship's entire track history